Terminal Aerodrome Forecast
Issued by NWS

Home | Current Version | Previous Version | Text Only | Print | Product List | Glossary On
Versions: 1 2 3 4 5 6 7 8 9 10 11 12 13
511
FTUS46 KLOX 222340
TAFBUR
TAF
KBUR 222340Z 2300/2324 18008KT P6SM SKC
     FM230200 13008KT P6SM SKC
     FM230800 VRB03KT P6SM SKC
     FM232000 18008KT P6SM SKC=

USA.gov is the U.S. government's official web portal to all federal, state and local government web resources and services.